CFG93LD LICC-EHEH
Flight info
| Callsign | CFG93LD |
|---|---|
| Flight time | 2h 35m |
| Altitude | 34000 |
| Route | BUDIN DCT NAXES DCT TEA DCT ATRUP DCT BELOV DCT VESAL DCT BRENO DCT KONIN DCT ERNAS DCT INBED DCT TEKTU DCT TESGA DCT UMUPU T880 ADMUM/N0406F240 T880 ASDAK DCT LNO |
| Aircraft | A321/M-SDE3FGHIRWY/LB1 |
Departure
| Time | 2026-05-05 12:50 |
|---|---|
| Airport | Catania-Fontanarossa Airport (LICC) |
Arrival
| Time | 2026-05-05 15:25 |
|---|---|
| Airport | Eindhoven Airport (EHEH) |
| Time | Latitude | Longitude | Altitude | Speed | Heading |
|---|---|---|---|---|---|
| 2026-05-05 12:18 | 37.46962 | 15.06472 | 32 ft | 0 kts | 19° |
| 2026-05-05 12:40 | 37.46953 | 15.06468 | 31 ft | 4 kts | 19° |
| 2026-05-05 12:40 | 37.46928 | 15.06457 | 31 ft | 4 kts | 19° |
| 2026-05-05 12:40 | 37.46902 | 15.06447 | 31 ft | 4 kts | 14° |
| 2026-05-05 12:40 | 37.46880 | 15.06442 | 31 ft | 3 kts | 4° |
| 2026-05-05 12:41 | 37.46854 | 15.06441 | 31 ft | 4 kts | 350° |
| 2026-05-05 12:41 | 37.46832 | 15.06451 | 32 ft | 4 kts | 303° |
| 2026-05-05 12:41 | 37.46827 | 15.06461 | 32 ft | 3 kts | 258° |
| 2026-05-05 12:41 | 37.46826 | 15.06427 | 32 ft | 4 kts | 268° |
| 2026-05-05 12:42 | 37.46823 | 15.06399 | 32 ft | 1 kts | 259° |
| 2026-05-05 12:45 | 37.46821 | 15.06386 | 30 ft | 6 kts | 259° |
| 2026-05-05 12:45 | 37.46813 | 15.06317 | 31 ft | 8 kts | 262° |
| 2026-05-05 12:45 | 37.46808 | 15.06258 | 32 ft | 6 kts | 267° |
| 2026-05-05 12:46 | 37.46805 | 15.06181 | 32 ft | 13 kts | 266° |
| 2026-05-05 12:46 | 37.46794 | 15.06028 | 32 ft | 20 kts | 264° |
| 2026-05-05 12:46 | 37.46780 | 15.05860 | 32 ft | 18 kts | 263° |
| 2026-05-05 12:46 | 37.46766 | 15.05706 | 32 ft | 17 kts | 264° |
| 2026-05-05 12:47 | 37.46753 | 15.05564 | 30 ft | 16 kts | 264° |
| 2026-05-05 12:47 | 37.46742 | 15.05433 | 32 ft | 14 kts | 264° |
| 2026-05-05 12:47 | 37.46732 | 15.05322 | 32 ft | 5 kts | 258° |
| 2026-05-05 12:47 | 37.46715 | 15.05303 | 32 ft | 4 kts | 219° |
| 2026-05-05 12:48 | 37.46677 | 15.05265 | 32 ft | 10 kts | 220° |
| 2026-05-05 12:48 | 37.46664 | 15.05251 | 32 ft | 2 kts | 220° |
| 2026-05-05 12:48 | 37.46632 | 15.05218 | 33 ft | 9 kts | 220° |
| 2026-05-05 12:48 | 37.46589 | 15.05200 | 35 ft | 5 kts | 168° |
| 2026-05-05 12:49 | 37.46564 | 15.05234 | 34 ft | 9 kts | 105° |
| 2026-05-05 12:49 | 37.46572 | 15.05364 | 35 ft | 31 kts | 83° |
| 2026-05-05 12:49 | 37.46621 | 15.05946 | 36 ft | 99 kts | 84° |
| 2026-05-05 12:49 | 37.46711 | 15.07048 | 36 ft | 151 kts | 84° |
| 2026-05-05 12:50 | 37.46814 | 15.08435 | 564 ft | 152 kts | 86° |
| 2026-05-05 12:50 | 37.46936 | 15.09707 | 1358 ft | 142 kts | 81° |
| 2026-05-05 12:50 | 37.47123 | 15.10984 | 1663 ft | 157 kts | 81° |
| 2026-05-05 12:50 | 37.47290 | 15.12384 | 1902 ft | 170 kts | 84° |
| 2026-05-05 12:51 | 37.47460 | 15.13899 | 2246 ft | 179 kts | 83° |
| 2026-05-05 12:51 | 37.47680 | 15.15515 | 2561 ft | 190 kts | 82° |
| 2026-05-05 12:51 | 37.47913 | 15.17175 | 2876 ft | 201 kts | 82° |
| 2026-05-05 12:51 | 37.48180 | 15.18982 | 3023 ft | 220 kts | 81° |
| 2026-05-05 12:52 | 37.48477 | 15.20957 | 3147 ft | 240 kts | 81° |
| 2026-05-05 12:52 | 37.48799 | 15.23123 | 3365 ft | 260 kts | 81° |
| 2026-05-05 12:52 | 37.49127 | 15.25375 | 4004 ft | 263 kts | 81° |
| 2026-05-05 12:52 | 37.49670 | 15.27587 | 4652 ft | 268 kts | 64° |
| 2026-05-05 12:53 | 37.50743 | 15.29514 | 5213 ft | 275 kts | 43° |
| 2026-05-05 12:53 | 37.52361 | 15.30818 | 5735 ft | 279 kts | 18° |
| 2026-05-05 12:53 | 37.54276 | 15.31136 | 6330 ft | 280 kts | 352° |
| 2026-05-05 12:53 | 37.56206 | 15.30714 | 6848 ft | 284 kts | 348° |
| 2026-05-05 12:54 | 37.60075 | 15.29755 | 7014 ft | 283 kts | 347° |
| 2026-05-05 12:54 | 37.62012 | 15.29271 | 7507 ft | 285 kts | 347° |
| 2026-05-05 12:54 | 37.63962 | 15.28787 | 8181 ft | 286 kts | 347° |
| 2026-05-05 12:55 | 37.65921 | 15.28304 | 8808 ft | 288 kts | 348° |
| 2026-05-05 12:55 | 37.67895 | 15.27817 | 9419 ft | 290 kts | 347° |
| 2026-05-05 12:55 | 37.69858 | 15.27336 | 10008 ft | 292 kts | 348° |
| 2026-05-05 12:55 | 37.71879 | 15.26840 | 10349 ft | 305 kts | 347° |
| 2026-05-05 12:56 | 37.74024 | 15.26309 | 10495 ft | 322 kts | 347° |
| 2026-05-05 12:56 | 37.76278 | 15.25750 | 10629 ft | 339 kts | 347° |
| 2026-05-05 12:56 | 37.78649 | 15.25162 | 10761 ft | 355 kts | 347° |
| 2026-05-05 12:56 | 37.81105 | 15.24558 | 11099 ft | 363 kts | 347° |
| 2026-05-05 12:57 | 37.83598 | 15.23944 | 11623 ft | 365 kts | 347° |
| 2026-05-05 12:57 | 37.86095 | 15.23329 | 12164 ft | 367 kts | 347° |
| 2026-05-05 12:57 | 37.88617 | 15.22708 | 12715 ft | 369 kts | 347° |
| 2026-05-05 12:57 | 37.91143 | 15.22086 | 13225 ft | 370 kts | 347° |
| 2026-05-05 12:58 | 37.93685 | 15.21462 | 13663 ft | 373 kts | 347° |
| 2026-05-05 12:58 | 37.96239 | 15.20832 | 14125 ft | 376 kts | 347° |
| 2026-05-05 12:58 | 37.98811 | 15.20194 | 14588 ft | 378 kts | 347° |
| 2026-05-05 12:58 | 38.01404 | 15.19552 | 15056 ft | 380 kts | 346° |
| 2026-05-05 12:59 | 38.04010 | 15.18906 | 15481 ft | 383 kts | 346° |
| 2026-05-05 12:59 | 38.06630 | 15.18255 | 15914 ft | 384 kts | 346° |
| 2026-05-05 12:59 | 38.09265 | 15.17601 | 16332 ft | 387 kts | 346° |
| 2026-05-05 13:00 | 38.14581 | 15.16279 | 17076 ft | 391 kts | 346° |
| 2026-05-05 13:00 | 38.17255 | 15.15614 | 17437 ft | 393 kts | 346° |
| 2026-05-05 13:01 | 38.25366 | 15.13592 | 18437 ft | 398 kts | 346° |
| 2026-05-05 13:01 | 38.28092 | 15.12905 | 18731 ft | 401 kts | 346° |
| 2026-05-05 13:01 | 38.30838 | 15.12215 | 19035 ft | 403 kts | 346° |
| 2026-05-05 13:01 | 38.33591 | 15.11526 | 19346 ft | 405 kts | 346° |
| 2026-05-05 13:02 | 38.36370 | 15.10832 | 19651 ft | 407 kts | 346° |
| 2026-05-05 13:02 | 38.39157 | 15.10135 | 19961 ft | 409 kts | 346° |
| 2026-05-05 13:02 | 38.41956 | 15.09433 | 20268 ft | 411 kts | 346° |
| 2026-05-05 13:02 | 38.44773 | 15.08727 | 20574 ft | 413 kts | 346° |
| 2026-05-05 13:03 | 38.47559 | 15.07987 | 20874 ft | 414 kts | 342° |
| 2026-05-05 13:03 | 38.50298 | 15.06864 | 21154 ft | 414 kts | 338° |
| 2026-05-05 13:03 | 38.53032 | 15.05675 | 21472 ft | 416 kts | 338° |
| 2026-05-05 13:03 | 38.55782 | 15.04486 | 21782 ft | 418 kts | 338° |
| 2026-05-05 13:04 | 38.58544 | 15.03297 | 22082 ft | 420 kts | 338° |
| 2026-05-05 13:04 | 38.61327 | 15.02099 | 22380 ft | 422 kts | 338° |
| 2026-05-05 13:04 | 38.64109 | 15.00899 | 22672 ft | 424 kts | 338° |
| 2026-05-05 13:04 | 38.66909 | 14.99691 | 22940 ft | 425 kts | 338° |
| 2026-05-05 13:05 | 38.69718 | 14.98474 | 23217 ft | 427 kts | 338° |
| 2026-05-05 13:05 | 38.72544 | 14.97242 | 23486 ft | 429 kts | 338° |
| 2026-05-05 13:05 | 38.75380 | 14.96006 | 23758 ft | 431 kts | 338° |
| 2026-05-05 13:05 | 38.78225 | 14.94770 | 24019 ft | 433 kts | 338° |
| 2026-05-05 13:06 | 38.81091 | 14.93526 | 24277 ft | 435 kts | 338° |
| 2026-05-05 13:06 | 38.83959 | 14.92278 | 24550 ft | 436 kts | 338° |
| 2026-05-05 13:06 | 38.86833 | 14.91026 | 24825 ft | 437 kts | 338° |
| 2026-05-05 13:06 | 38.89720 | 14.89766 | 25099 ft | 438 kts | 338° |
| 2026-05-05 13:07 | 38.92609 | 14.88504 | 25365 ft | 439 kts | 337° |
| 2026-05-05 13:07 | 38.95506 | 14.87239 | 25631 ft | 440 kts | 337° |
| 2026-05-05 13:07 | 38.98412 | 14.85968 | 25894 ft | 441 kts | 337° |
| 2026-05-05 13:07 | 39.01319 | 14.84693 | 26157 ft | 442 kts | 337° |
| 2026-05-05 13:08 | 39.04235 | 14.83411 | 26402 ft | 443 kts | 337° |
| 2026-05-05 13:08 | 39.07157 | 14.82131 | 26643 ft | 444 kts | 337° |
| 2026-05-05 13:08 | 39.10085 | 14.80846 | 26883 ft | 445 kts | 337° |
| 2026-05-05 13:08 | 39.13020 | 14.79558 | 27093 ft | 445 kts | 337° |
| 2026-05-05 13:09 | 39.15951 | 14.78269 | 27306 ft | 446 kts | 337° |
| 2026-05-05 13:09 | 39.18859 | 14.76988 | 27488 ft | 447 kts | 337° |
| 2026-05-05 13:09 | 39.21803 | 14.75691 | 27667 ft | 448 kts | 337° |
| 2026-05-05 13:09 | 39.24763 | 14.74392 | 27854 ft | 449 kts | 337° |
| 2026-05-05 13:10 | 39.27720 | 14.73093 | 28030 ft | 449 kts | 337° |
| 2026-05-05 13:10 | 39.30680 | 14.71787 | 28184 ft | 450 kts | 336° |
| 2026-05-05 13:10 | 39.33640 | 14.70480 | 28368 ft | 449 kts | 336° |
| 2026-05-05 13:10 | 39.36596 | 14.69170 | 28578 ft | 448 kts | 336° |
| 2026-05-05 13:11 | 39.39545 | 14.67862 | 28777 ft | 447 kts | 336° |
| 2026-05-05 13:11 | 39.42486 | 14.66563 | 28991 ft | 446 kts | 336° |
| 2026-05-05 13:11 | 39.45415 | 14.65266 | 29179 ft | 445 kts | 336° |
| 2026-05-05 13:11 | 39.48347 | 14.63965 | 29389 ft | 444 kts | 336° |
| 2026-05-05 13:12 | 39.51266 | 14.62665 | 29591 ft | 443 kts | 336° |
| 2026-05-05 13:12 | 39.54169 | 14.61371 | 29792 ft | 442 kts | 336° |
| 2026-05-05 13:12 | 39.57074 | 14.60077 | 29982 ft | 441 kts | 336° |
| 2026-05-05 13:12 | 39.59976 | 14.58785 | 30179 ft | 440 kts | 336° |
| 2026-05-05 13:13 | 39.62863 | 14.57500 | 30358 ft | 439 kts | 336° |
| 2026-05-05 13:13 | 39.65747 | 14.56213 | 30540 ft | 438 kts | 336° |
| 2026-05-05 13:13 | 39.68629 | 14.54926 | 30735 ft | 437 kts | 336° |
| 2026-05-05 13:13 | 39.71498 | 14.53642 | 30922 ft | 436 kts | 336° |
| 2026-05-05 13:14 | 39.74367 | 14.52355 | 31106 ft | 436 kts | 336° |
| 2026-05-05 13:14 | 39.77228 | 14.51071 | 31282 ft | 435 kts | 336° |
| 2026-05-05 13:14 | 39.80087 | 14.49791 | 31475 ft | 434 kts | 336° |
| 2026-05-05 13:14 | 39.82935 | 14.48513 | 31661 ft | 433 kts | 336° |
| 2026-05-05 13:15 | 39.85783 | 14.47235 | 31863 ft | 432 kts | 336° |
| 2026-05-05 13:15 | 39.88628 | 14.45962 | 32043 ft | 432 kts | 336° |
| 2026-05-05 13:15 | 39.91499 | 14.44797 | 32238 ft | 433 kts | 339° |
| 2026-05-05 13:15 | 39.94404 | 14.43764 | 32432 ft | 433 kts | 340° |
| 2026-05-05 13:16 | 39.96331 | 14.43131 | 32555 ft | 432 kts | 341° |
| 2026-05-05 13:16 | 39.99261 | 14.42208 | 32716 ft | 432 kts | 341° |
| 2026-05-05 13:16 | 40.02178 | 14.41293 | 32897 ft | 431 kts | 341° |
| 2026-05-05 13:16 | 40.05087 | 14.40356 | 33056 ft | 431 kts | 340° |
| 2026-05-05 13:17 | 40.07987 | 14.39392 | 33222 ft | 430 kts | 340° |
| 2026-05-05 13:17 | 40.10881 | 14.38409 | 33405 ft | 428 kts | 340° |
| 2026-05-05 13:17 | 40.13761 | 14.37416 | 33583 ft | 427 kts | 339° |
| 2026-05-05 13:17 | 40.16633 | 14.36418 | 33739 ft | 426 kts | 339° |
| 2026-05-05 13:18 | 40.19500 | 14.35427 | 33905 ft | 426 kts | 340° |
| 2026-05-05 13:18 | 40.22366 | 14.34442 | 34063 ft | 425 kts | 340° |
| 2026-05-05 13:18 | 40.28068 | 14.32493 | 34109 ft | 422 kts | 340° |
| 2026-05-05 13:19 | 40.33747 | 14.30553 | 34110 ft | 421 kts | 340° |
| 2026-05-05 13:19 | 40.39423 | 14.28602 | 34114 ft | 421 kts | 340° |
| 2026-05-05 13:20 | 40.45091 | 14.26647 | 34119 ft | 421 kts | 339° |
| 2026-05-05 13:20 | 40.50766 | 14.24678 | 34116 ft | 422 kts | 339° |
| 2026-05-05 13:21 | 40.56439 | 14.22718 | 34121 ft | 422 kts | 339° |
| 2026-05-05 13:21 | 40.62119 | 14.20754 | 34122 ft | 422 kts | 339° |
| 2026-05-05 13:22 | 40.67769 | 14.18791 | 34121 ft | 422 kts | 339° |
| 2026-05-05 13:22 | 40.73454 | 14.16808 | 34122 ft | 423 kts | 339° |
| 2026-05-05 13:23 | 40.79141 | 14.14829 | 34116 ft | 422 kts | 339° |
| 2026-05-05 13:23 | 40.84821 | 14.12840 | 34111 ft | 422 kts | 339° |
| 2026-05-05 13:24 | 40.90501 | 14.10853 | 34110 ft | 422 kts | 339° |
| 2026-05-05 13:24 | 40.96186 | 14.08871 | 34109 ft | 423 kts | 339° |
| 2026-05-05 13:25 | 41.01874 | 14.06876 | 34113 ft | 423 kts | 339° |
| 2026-05-05 13:25 | 41.07573 | 14.04880 | 34116 ft | 424 kts | 339° |
| 2026-05-05 13:26 | 41.13276 | 14.02868 | 34117 ft | 424 kts | 339° |
| 2026-05-05 13:26 | 41.18986 | 14.00848 | 34119 ft | 425 kts | 339° |
| 2026-05-05 13:27 | 41.24709 | 13.98822 | 34118 ft | 426 kts | 339° |
| 2026-05-05 13:27 | 41.30453 | 13.96790 | 34115 ft | 428 kts | 339° |
| 2026-05-05 13:28 | 41.36213 | 13.94766 | 34115 ft | 428 kts | 339° |
| 2026-05-05 13:28 | 41.41985 | 13.92736 | 34112 ft | 429 kts | 339° |
| 2026-05-05 13:29 | 41.47757 | 13.90705 | 34113 ft | 430 kts | 339° |
| 2026-05-05 13:29 | 41.53505 | 13.88692 | 34114 ft | 430 kts | 339° |
| 2026-05-05 13:30 | 41.59301 | 13.86651 | 34113 ft | 431 kts | 339° |
| 2026-05-05 13:30 | 41.65100 | 13.84601 | 34117 ft | 431 kts | 338° |
| 2026-05-05 13:31 | 41.70890 | 13.82537 | 34118 ft | 430 kts | 338° |
| 2026-05-05 13:31 | 41.76673 | 13.80475 | 34112 ft | 430 kts | 338° |
| 2026-05-05 13:32 | 41.82455 | 13.78414 | 34103 ft | 430 kts | 338° |
| 2026-05-05 13:32 | 41.88242 | 13.76353 | 34110 ft | 431 kts | 338° |
| 2026-05-05 13:33 | 41.94034 | 13.74285 | 34111 ft | 431 kts | 338° |
| 2026-05-05 13:33 | 41.99828 | 13.72211 | 34114 ft | 431 kts | 338° |
| 2026-05-05 13:34 | 42.05620 | 13.70128 | 34114 ft | 431 kts | 338° |
| 2026-05-05 13:34 | 42.11416 | 13.68044 | 34102 ft | 431 kts | 338° |
| 2026-05-05 13:35 | 42.17202 | 13.65959 | 34117 ft | 431 kts | 338° |
| 2026-05-05 13:35 | 42.22967 | 13.63871 | 34108 ft | 432 kts | 338° |
| 2026-05-05 13:36 | 42.28784 | 13.61768 | 34103 ft | 432 kts | 338° |
| 2026-05-05 13:36 | 42.34600 | 13.59663 | 34098 ft | 433 kts | 339° |
| 2026-05-05 13:37 | 42.40397 | 13.57487 | 34089 ft | 432 kts | 338° |
| 2026-05-05 13:37 | 42.46174 | 13.55203 | 34087 ft | 432 kts | 337° |
| 2026-05-05 13:38 | 42.51957 | 13.52917 | 34079 ft | 433 kts | 338° |
| 2026-05-05 13:38 | 42.57758 | 13.50661 | 34078 ft | 434 kts | 338° |
| 2026-05-05 13:39 | 42.63526 | 13.48427 | 34079 ft | 434 kts | 338° |
| 2026-05-05 13:39 | 42.69334 | 13.46151 | 34078 ft | 434 kts | 338° |
| 2026-05-05 13:40 | 42.75149 | 13.43862 | 34081 ft | 435 kts | 338° |
| 2026-05-05 13:40 | 42.80971 | 13.41566 | 34075 ft | 436 kts | 338° |
| 2026-05-05 13:41 | 42.86797 | 13.39273 | 34077 ft | 436 kts | 338° |
| 2026-05-05 13:41 | 42.92627 | 13.36972 | 34078 ft | 437 kts | 338° |
| 2026-05-05 13:42 | 42.98468 | 13.34669 | 34078 ft | 438 kts | 338° |
| 2026-05-05 13:42 | 43.04283 | 13.32371 | 34077 ft | 438 kts | 338° |
| 2026-05-05 13:43 | 43.10140 | 13.30047 | 34073 ft | 438 kts | 338° |
| 2026-05-05 13:43 | 43.16003 | 13.27710 | 34062 ft | 439 kts | 338° |
| 2026-05-05 13:44 | 43.21867 | 13.25376 | 34060 ft | 439 kts | 338° |
| 2026-05-05 13:44 | 43.27732 | 13.23034 | 34055 ft | 439 kts | 339° |
| 2026-05-05 13:45 | 43.33558 | 13.20713 | 34052 ft | 439 kts | 339° |
| 2026-05-05 13:45 | 43.39425 | 13.18360 | 34051 ft | 439 kts | 339° |
| 2026-05-05 13:46 | 43.45282 | 13.16000 | 34050 ft | 439 kts | 339° |
| 2026-05-05 13:46 | 43.51139 | 13.13647 | 34045 ft | 439 kts | 339° |
| 2026-05-05 13:47 | 43.56967 | 13.11299 | 34044 ft | 439 kts | 339° |
| 2026-05-05 13:47 | 43.62799 | 13.08942 | 34037 ft | 439 kts | 339° |
| 2026-05-05 13:48 | 43.68667 | 13.06562 | 34034 ft | 439 kts | 338° |
| 2026-05-05 13:48 | 43.74239 | 13.04291 | 34040 ft | 439 kts | 338° |
| 2026-05-05 13:49 | 43.77429 | 13.02987 | 34042 ft | 439 kts | 338° |
| 2026-05-05 13:50 | 43.81959 | 13.01072 | 34031 ft | 438 kts | 338° |
| 2026-05-05 13:50 | 43.85543 | 12.99624 | 34036 ft | 439 kts | 339° |
| 2026-05-05 13:51 | 43.91416 | 12.97281 | 34027 ft | 439 kts | 339° |
| 2026-05-05 13:51 | 43.97272 | 12.94912 | 34028 ft | 438 kts | 338° |
| 2026-05-05 13:52 | 44.03119 | 12.92511 | 34025 ft | 438 kts | 339° |
| 2026-05-05 13:52 | 44.08965 | 12.90100 | 34022 ft | 438 kts | 339° |
| 2026-05-05 13:53 | 44.14815 | 12.87690 | 34015 ft | 438 kts | 339° |
| 2026-05-05 13:53 | 44.20669 | 12.85279 | 34010 ft | 439 kts | 339° |
| 2026-05-05 13:54 | 44.25178 | 12.83414 | 34014 ft | 439 kts | 339° |
| 2026-05-05 13:54 | 44.30995 | 12.81010 | 34010 ft | 439 kts | 339° |
| 2026-05-05 13:55 | 44.36846 | 12.78586 | 34009 ft | 439 kts | 339° |
| 2026-05-05 13:55 | 44.42707 | 12.76157 | 34008 ft | 439 kts | 339° |
| 2026-05-05 13:56 | 44.48559 | 12.73724 | 34007 ft | 439 kts | 339° |
| 2026-05-05 13:56 | 44.54413 | 12.71270 | 34000 ft | 439 kts | 338° |
| 2026-05-05 13:57 | 44.60106 | 12.68494 | 33997 ft | 437 kts | 335° |
| 2026-05-05 13:57 | 44.65807 | 12.65391 | 33994 ft | 437 kts | 334° |
| 2026-05-05 13:58 | 44.71438 | 12.62328 | 33990 ft | 437 kts | 335° |
| 2026-05-05 13:58 | 44.77135 | 12.59327 | 33987 ft | 438 kts | 335° |
| 2026-05-05 13:59 | 44.85705 | 12.54846 | 33989 ft | 438 kts | 335° |
| 2026-05-05 14:00 | 44.93312 | 12.50844 | 33987 ft | 438 kts | 335° |
| 2026-05-05 14:00 | 44.99988 | 12.47313 | 33992 ft | 439 kts | 335° |
| 2026-05-05 14:01 | 45.05707 | 12.44278 | 33991 ft | 439 kts | 335° |
| 2026-05-05 14:01 | 45.11428 | 12.41227 | 33996 ft | 440 kts | 335° |
| 2026-05-05 14:02 | 45.17071 | 12.38215 | 34001 ft | 440 kts | 335° |
| 2026-05-05 14:02 | 45.22812 | 12.35154 | 34005 ft | 441 kts | 335° |
| 2026-05-05 14:03 | 45.28561 | 12.32078 | 34007 ft | 441 kts | 335° |
| 2026-05-05 14:03 | 45.34303 | 12.29000 | 34009 ft | 442 kts | 335° |
| 2026-05-05 14:04 | 45.39087 | 12.26434 | 34006 ft | 442 kts | 335° |
| 2026-05-05 14:04 | 45.45779 | 12.22827 | 34010 ft | 443 kts | 335° |
| 2026-05-05 14:05 | 45.50615 | 12.20213 | 34015 ft | 443 kts | 336° |
| 2026-05-05 14:05 | 45.56348 | 12.17107 | 34014 ft | 444 kts | 335° |
| 2026-05-05 14:06 | 45.62115 | 12.13979 | 34011 ft | 444 kts | 336° |
| 2026-05-05 14:06 | 45.67890 | 12.10851 | 34010 ft | 444 kts | 336° |
| 2026-05-05 14:07 | 45.73674 | 12.07715 | 34009 ft | 444 kts | 336° |
| 2026-05-05 14:07 | 45.79458 | 12.04558 | 34011 ft | 445 kts | 335° |
| 2026-05-05 14:08 | 45.85236 | 12.01389 | 34021 ft | 445 kts | 335° |
| 2026-05-05 14:08 | 45.91020 | 11.98218 | 34019 ft | 445 kts | 336° |
| 2026-05-05 14:09 | 45.96814 | 11.95042 | 34024 ft | 445 kts | 335° |
| 2026-05-05 14:09 | 46.02598 | 11.91859 | 34026 ft | 445 kts | 335° |
| 2026-05-05 14:10 | 46.08385 | 11.88663 | 34045 ft | 446 kts | 335° |
| 2026-05-05 14:10 | 46.14138 | 11.85482 | 34032 ft | 445 kts | 335° |
| 2026-05-05 14:11 | 46.19921 | 11.82278 | 34043 ft | 445 kts | 335° |
| 2026-05-05 14:11 | 46.25699 | 11.79069 | 34038 ft | 445 kts | 335° |
| 2026-05-05 14:12 | 46.31481 | 11.75852 | 34045 ft | 446 kts | 335° |
| 2026-05-05 14:12 | 46.37265 | 11.72615 | 34034 ft | 446 kts | 335° |
| 2026-05-05 14:13 | 46.43053 | 11.69359 | 34036 ft | 446 kts | 335° |
| 2026-05-05 14:13 | 46.48834 | 11.66062 | 34029 ft | 446 kts | 335° |
| 2026-05-05 14:14 | 46.54577 | 11.62772 | 34020 ft | 447 kts | 335° |
| 2026-05-05 14:14 | 46.60363 | 11.59448 | 34008 ft | 447 kts | 334° |
| 2026-05-05 14:15 | 46.66156 | 11.56114 | 34003 ft | 448 kts | 334° |
| 2026-05-05 14:15 | 46.71994 | 11.52746 | 33992 ft | 448 kts | 334° |
| 2026-05-05 14:16 | 46.77788 | 11.49404 | 33978 ft | 448 kts | 334° |
| 2026-05-05 14:16 | 46.83594 | 11.46042 | 33968 ft | 449 kts | 334° |
| 2026-05-05 14:17 | 46.89411 | 11.42675 | 33957 ft | 450 kts | 334° |
| 2026-05-05 14:17 | 46.95200 | 11.39344 | 33926 ft | 451 kts | 337° |
| 2026-05-05 14:18 | 47.01409 | 11.37624 | 33908 ft | 460 kts | 355° |
| 2026-05-05 14:18 | 47.07835 | 11.37570 | 33888 ft | 462 kts | 356° |
| 2026-05-05 14:19 | 47.14277 | 11.37521 | 33874 ft | 463 kts | 356° |
| 2026-05-05 14:19 | 47.20731 | 11.37444 | 33868 ft | 463 kts | 356° |
| 2026-05-05 14:20 | 47.27185 | 11.37374 | 33865 ft | 464 kts | 356° |
| 2026-05-05 14:20 | 47.33650 | 11.37318 | 33866 ft | 465 kts | 356° |
| 2026-05-05 14:21 | 47.40117 | 11.37261 | 33867 ft | 465 kts | 356° |
| 2026-05-05 14:21 | 47.46581 | 11.37198 | 33859 ft | 464 kts | 356° |
| 2026-05-05 14:22 | 47.53033 | 11.37133 | 33855 ft | 464 kts | 356° |
| 2026-05-05 14:22 | 47.59500 | 11.37070 | 33856 ft | 465 kts | 356° |
| 2026-05-05 14:23 | 47.65969 | 11.37005 | 33858 ft | 465 kts | 356° |
| 2026-05-05 14:23 | 47.72429 | 11.36939 | 33853 ft | 464 kts | 356° |
| 2026-05-05 14:24 | 47.78855 | 11.36880 | 33850 ft | 465 kts | 356° |
| 2026-05-05 14:24 | 47.85320 | 11.36798 | 33847 ft | 464 kts | 354° |
| 2026-05-05 14:25 | 47.91748 | 11.35908 | 33845 ft | 462 kts | 351° |
| 2026-05-05 14:25 | 47.98153 | 11.34947 | 33844 ft | 463 kts | 351° |
| 2026-05-05 14:26 | 48.04565 | 11.33999 | 33843 ft | 463 kts | 351° |
| 2026-05-05 14:26 | 48.10974 | 11.33046 | 33843 ft | 463 kts | 351° |
| 2026-05-05 14:27 | 48.17386 | 11.32091 | 33841 ft | 463 kts | 351° |
| 2026-05-05 14:27 | 48.23765 | 11.31133 | 33839 ft | 464 kts | 351° |
| 2026-05-05 14:28 | 48.30198 | 11.30168 | 33837 ft | 464 kts | 351° |
| 2026-05-05 14:28 | 48.36623 | 11.29201 | 33837 ft | 464 kts | 351° |
| 2026-05-05 14:29 | 48.43070 | 11.28246 | 33828 ft | 464 kts | 351° |
| 2026-05-05 14:29 | 48.49499 | 11.27279 | 33820 ft | 464 kts | 351° |
| 2026-05-05 14:30 | 48.55928 | 11.26295 | 33814 ft | 465 kts | 351° |
| 2026-05-05 14:30 | 48.62371 | 11.25303 | 33813 ft | 465 kts | 351° |
| 2026-05-05 14:31 | 48.68809 | 11.24332 | 33812 ft | 465 kts | 351° |
| 2026-05-05 14:31 | 48.75246 | 11.23356 | 33815 ft | 465 kts | 351° |
| 2026-05-05 14:32 | 48.81637 | 11.22381 | 33813 ft | 465 kts | 351° |
| 2026-05-05 14:32 | 48.87867 | 11.20233 | 33807 ft | 457 kts | 337° |
| 2026-05-05 14:33 | 48.93906 | 11.17150 | 33802 ft | 458 kts | 338° |
| 2026-05-05 14:33 | 48.99958 | 11.14078 | 33796 ft | 458 kts | 338° |
| 2026-05-05 14:34 | 49.06006 | 11.11000 | 33795 ft | 458 kts | 337° |
| 2026-05-05 14:34 | 49.12055 | 11.07907 | 33794 ft | 459 kts | 338° |
| 2026-05-05 14:35 | 49.18109 | 11.04807 | 33793 ft | 459 kts | 338° |
| 2026-05-05 14:35 | 49.24131 | 11.01721 | 33800 ft | 459 kts | 337° |
| 2026-05-05 14:36 | 49.30194 | 10.98601 | 33804 ft | 459 kts | 337° |
| 2026-05-05 14:36 | 49.36143 | 10.95138 | 33801 ft | 454 kts | 327° |
| 2026-05-05 14:37 | 49.41166 | 10.89527 | 33796 ft | 443 kts | 310° |
| 2026-05-05 14:37 | 49.45174 | 10.82408 | 33789 ft | 439 kts | 305° |
| 2026-05-05 14:38 | 49.49102 | 10.75208 | 33784 ft | 440 kts | 305° |
| 2026-05-05 14:38 | 49.53035 | 10.67977 | 33787 ft | 440 kts | 305° |
| 2026-05-05 14:39 | 49.56931 | 10.60773 | 33787 ft | 441 kts | 305° |
| 2026-05-05 14:39 | 49.60853 | 10.53491 | 33794 ft | 442 kts | 305° |
| 2026-05-05 14:40 | 49.64777 | 10.46210 | 33796 ft | 442 kts | 305° |
| 2026-05-05 14:40 | 49.68683 | 10.38938 | 33798 ft | 442 kts | 305° |
| 2026-05-05 14:41 | 49.72604 | 10.31627 | 33803 ft | 442 kts | 304° |
| 2026-05-05 14:41 | 49.76512 | 10.24304 | 33809 ft | 442 kts | 304° |
| 2026-05-05 14:42 | 49.80424 | 10.16965 | 33814 ft | 442 kts | 304° |
| 2026-05-05 14:42 | 49.84341 | 10.09596 | 33821 ft | 442 kts | 304° |
| 2026-05-05 14:43 | 49.88235 | 10.02216 | 33827 ft | 442 kts | 304° |
| 2026-05-05 14:43 | 49.92106 | 9.94880 | 33828 ft | 442 kts | 304° |
| 2026-05-05 14:44 | 49.95998 | 9.87493 | 33834 ft | 442 kts | 304° |
| 2026-05-05 14:44 | 49.99882 | 9.80087 | 33843 ft | 442 kts | 304° |
| 2026-05-05 14:45 | 50.03763 | 9.72683 | 33847 ft | 442 kts | 304° |
| 2026-05-05 14:45 | 50.07640 | 9.65268 | 33847 ft | 441 kts | 304° |
| 2026-05-05 14:46 | 50.11508 | 9.57837 | 33844 ft | 441 kts | 304° |
| 2026-05-05 14:46 | 50.15365 | 9.50409 | 33842 ft | 441 kts | 303° |
| 2026-05-05 14:47 | 50.19192 | 9.43000 | 33839 ft | 440 kts | 303° |
| 2026-05-05 14:47 | 50.23043 | 9.35547 | 33840 ft | 440 kts | 303° |
| 2026-05-05 14:48 | 50.26876 | 9.28099 | 33840 ft | 440 kts | 303° |
| 2026-05-05 14:48 | 50.30696 | 9.20646 | 33837 ft | 439 kts | 303° |
| 2026-05-05 14:49 | 50.34149 | 9.12866 | 33838 ft | 431 kts | 291° |
| 2026-05-05 14:49 | 50.36117 | 9.04461 | 33834 ft | 423 kts | 282° |
| 2026-05-05 14:50 | 50.37856 | 8.95644 | 33828 ft | 424 kts | 282° |
| 2026-05-05 14:50 | 50.39614 | 8.86795 | 33830 ft | 425 kts | 282° |
| 2026-05-05 14:51 | 50.41368 | 8.77954 | 33830 ft | 425 kts | 282° |
| 2026-05-05 14:51 | 50.42806 | 8.70576 | 33827 ft | 425 kts | 281° |
| 2026-05-05 14:52 | 50.44466 | 8.61695 | 33825 ft | 422 kts | 277° |
| 2026-05-05 14:52 | 50.45419 | 8.52700 | 33824 ft | 420 kts | 274° |
| 2026-05-05 14:53 | 50.46330 | 8.43637 | 33824 ft | 420 kts | 274° |
| 2026-05-05 14:53 | 50.47223 | 8.34558 | 33823 ft | 421 kts | 273° |
| 2026-05-05 14:54 | 50.48110 | 8.25458 | 33824 ft | 421 kts | 273° |
| 2026-05-05 14:54 | 50.48993 | 8.16410 | 33825 ft | 422 kts | 273° |
| 2026-05-05 14:55 | 50.49888 | 8.07239 | 33825 ft | 422 kts | 273° |
| 2026-05-05 14:55 | 50.50758 | 7.98124 | 33824 ft | 422 kts | 273° |
| 2026-05-05 14:56 | 50.51620 | 7.89059 | 33825 ft | 422 kts | 273° |
| 2026-05-05 14:56 | 50.52478 | 7.79914 | 33827 ft | 423 kts | 273° |
| 2026-05-05 14:57 | 50.53329 | 7.70766 | 33828 ft | 423 kts | 272° |
| 2026-05-05 14:57 | 50.54178 | 7.61600 | 33830 ft | 423 kts | 272° |
| 2026-05-05 14:58 | 50.55015 | 7.52505 | 33834 ft | 424 kts | 272° |
| 2026-05-05 14:58 | 50.55812 | 7.43331 | 33837 ft | 421 kts | 269° |
| 2026-05-05 14:59 | 50.55938 | 7.34166 | 33837 ft | 418 kts | 265° |
| 2026-05-05 14:59 | 50.56004 | 7.25019 | 33836 ft | 418 kts | 265° |
| 2026-05-05 15:00 | 50.56055 | 7.17442 | 33835 ft | 418 kts | 265° |
| 2026-05-05 15:00 | 50.55921 | 7.06782 | 33835 ft | 416 kts | 262° |
| 2026-05-05 15:01 | 50.55658 | 6.97743 | 33835 ft | 417 kts | 262° |
| 2026-05-05 15:01 | 50.55412 | 6.88610 | 33839 ft | 418 kts | 262° |
| 2026-05-05 15:02 | 50.55191 | 6.79472 | 33841 ft | 418 kts | 262° |
| 2026-05-05 15:02 | 50.55020 | 6.70313 | 33835 ft | 422 kts | 267° |
| 2026-05-05 15:03 | 50.55914 | 6.61092 | 33835 ft | 429 kts | 275° |
| 2026-05-05 15:03 | 50.57042 | 6.51855 | 33840 ft | 430 kts | 275° |
| 2026-05-05 15:04 | 50.57873 | 6.44998 | 33840 ft | 431 kts | 275° |
| 2026-05-05 15:04 | 50.58981 | 6.35727 | 33836 ft | 433 kts | 275° |
| 2026-05-05 15:05 | 50.60032 | 6.26373 | 31752 ft | 437 kts | 270° |
| 2026-05-05 15:05 | 50.60135 | 6.21593 | 30026 ft | 439 kts | 262° |
| 2026-05-05 15:05 | 50.59954 | 6.16788 | 29186 ft | 439 kts | 263° |
| 2026-05-05 15:06 | 50.59799 | 6.11937 | 28111 ft | 446 kts | 263° |
| 2026-05-05 15:06 | 50.59666 | 6.07118 | 27527 ft | 440 kts | 264° |
| 2026-05-05 15:06 | 50.59540 | 6.02313 | 26803 ft | 438 kts | 264° |
| 2026-05-05 15:06 | 50.59410 | 5.97515 | 26092 ft | 436 kts | 264° |
| 2026-05-05 15:07 | 50.59348 | 5.92767 | 25383 ft | 435 kts | 271° |
| 2026-05-05 15:07 | 50.59952 | 5.88098 | 24696 ft | 438 kts | 288° |
| 2026-05-05 15:07 | 50.61368 | 5.83852 | 24003 ft | 440 kts | 304° |
| 2026-05-05 15:07 | 50.63459 | 5.80423 | 23316 ft | 441 kts | 321° |
| 2026-05-05 15:08 | 50.66098 | 5.78001 | 22668 ft | 440 kts | 337° |
| 2026-05-05 15:08 | 50.69049 | 5.76825 | 22035 ft | 436 kts | 354° |
| 2026-05-05 15:08 | 50.72052 | 5.76979 | 21429 ft | 430 kts | 11° |
| 2026-05-05 15:08 | 50.74922 | 5.78136 | 20864 ft | 422 kts | 16° |
| 2026-05-05 15:09 | 50.77733 | 5.79368 | 20315 ft | 415 kts | 16° |
| 2026-05-05 15:09 | 50.80487 | 5.80581 | 19790 ft | 408 kts | 16° |
| 2026-05-05 15:09 | 50.83203 | 5.81777 | 19282 ft | 401 kts | 16° |
| 2026-05-05 15:09 | 50.85810 | 5.82924 | 18799 ft | 395 kts | 16° |
| 2026-05-05 15:10 | 50.88483 | 5.84104 | 18281 ft | 390 kts | 16° |
| 2026-05-05 15:10 | 50.91078 | 5.85248 | 17808 ft | 385 kts | 16° |
| 2026-05-05 15:10 | 50.93643 | 5.86380 | 17315 ft | 380 kts | 16° |
| 2026-05-05 15:10 | 50.96174 | 5.87498 | 16828 ft | 376 kts | 16° |
| 2026-05-05 15:11 | 50.98655 | 5.88595 | 16336 ft | 373 kts | 16° |
| 2026-05-05 15:11 | 51.01144 | 5.89700 | 15839 ft | 369 kts | 16° |
| 2026-05-05 15:11 | 51.03612 | 5.90795 | 15332 ft | 367 kts | 16° |
| 2026-05-05 15:11 | 51.06060 | 5.91880 | 14822 ft | 364 kts | 16° |
| 2026-05-05 15:12 | 51.08508 | 5.92736 | 14457 ft | 354 kts | 5° |
| 2026-05-05 15:12 | 51.10860 | 5.92626 | 14191 ft | 328 kts | 350° |
| 2026-05-05 15:12 | 51.12990 | 5.91555 | 13532 ft | 317 kts | 332° |
| 2026-05-05 15:12 | 51.14769 | 5.89572 | 12744 ft | 311 kts | 314° |
| 2026-05-05 15:13 | 51.16078 | 5.86880 | 11960 ft | 306 kts | 298° |
| 2026-05-05 15:13 | 51.16951 | 5.83821 | 11136 ft | 302 kts | 292° |
| 2026-05-05 15:13 | 51.17780 | 5.80763 | 10331 ft | 298 kts | 293° |
| 2026-05-05 15:13 | 51.18605 | 5.77759 | 9545 ft | 294 kts | 293° |
| 2026-05-05 15:14 | 51.19424 | 5.74782 | 8761 ft | 291 kts | 293° |
| 2026-05-05 15:14 | 51.20232 | 5.71848 | 7977 ft | 287 kts | 293° |
| 2026-05-05 15:14 | 51.21023 | 5.68970 | 7319 ft | 279 kts | 293° |
| 2026-05-05 15:14 | 51.21796 | 5.66151 | 6964 ft | 277 kts | 293° |
| 2026-05-05 15:15 | 51.22567 | 5.63331 | 6564 ft | 279 kts | 293° |
| 2026-05-05 15:15 | 51.23340 | 5.60517 | 6141 ft | 277 kts | 294° |
| 2026-05-05 15:15 | 51.24098 | 5.57750 | 5734 ft | 274 kts | 294° |
| 2026-05-05 15:15 | 51.24860 | 5.54970 | 5320 ft | 272 kts | 294° |
| 2026-05-05 15:16 | 51.25613 | 5.52219 | 4921 ft | 270 kts | 294° |
| 2026-05-05 15:16 | 51.26364 | 5.49477 | 4508 ft | 268 kts | 294° |
| 2026-05-05 15:16 | 51.27105 | 5.46755 | 4101 ft | 267 kts | 294° |
| 2026-05-05 15:16 | 51.27839 | 5.44038 | 3735 ft | 263 kts | 295° |
| 2026-05-05 15:17 | 51.28528 | 5.41477 | 3598 ft | 240 kts | 294° |
| 2026-05-05 15:17 | 51.29156 | 5.39135 | 3394 ft | 221 kts | 295° |
| 2026-05-05 15:17 | 51.29598 | 5.36843 | 3022 ft | 216 kts | 272° |
| 2026-05-05 15:17 | 51.29231 | 5.34579 | 2659 ft | 214 kts | 240° |
| 2026-05-05 15:18 | 51.28381 | 5.32603 | 2300 ft | 215 kts | 234° |
| 2026-05-05 15:18 | 51.27468 | 5.30731 | 2019 ft | 213 kts | 229° |
| 2026-05-05 15:18 | 51.26396 | 5.29107 | 2006 ft | 213 kts | 221° |
| 2026-05-05 15:18 | 51.25500 | 5.27282 | 2000 ft | 201 kts | 247° |
| 2026-05-05 15:19 | 51.25251 | 5.25220 | 2006 ft | 193 kts | 275° |
| 2026-05-05 15:19 | 51.25423 | 5.23847 | 2002 ft | 188 kts | 293° |
| 2026-05-05 15:19 | 51.26123 | 5.22132 | 2008 ft | 184 kts | 317° |
| 2026-05-05 15:19 | 51.27153 | 5.20965 | 2011 ft | 181 kts | 337° |
| 2026-05-05 15:20 | 51.28338 | 5.20450 | 2011 ft | 179 kts | 356° |
| 2026-05-05 15:20 | 51.29568 | 5.20619 | 2011 ft | 177 kts | 16° |
| 2026-05-05 15:20 | 51.30677 | 5.21455 | 2010 ft | 177 kts | 35° |
| 2026-05-05 15:20 | 51.31687 | 5.22581 | 2013 ft | 177 kts | 35° |
| 2026-05-05 15:21 | 51.32699 | 5.23706 | 2011 ft | 177 kts | 34° |
| 2026-05-05 15:21 | 51.33663 | 5.24778 | 2023 ft | 162 kts | 34° |
| 2026-05-05 15:21 | 51.34559 | 5.25774 | 2006 ft | 150 kts | 35° |
| 2026-05-05 15:21 | 51.35398 | 5.26710 | 2000 ft | 144 kts | 35° |
| 2026-05-05 15:22 | 51.36216 | 5.27619 | 1900 ft | 142 kts | 34° |
| 2026-05-05 15:22 | 51.37021 | 5.28518 | 1750 ft | 140 kts | 34° |
| 2026-05-05 15:22 | 51.37821 | 5.29410 | 1582 ft | 140 kts | 35° |
| 2026-05-05 15:22 | 51.38615 | 5.30296 | 1410 ft | 139 kts | 34° |
| 2026-05-05 15:23 | 51.39409 | 5.31183 | 1222 ft | 138 kts | 35° |
| 2026-05-05 15:23 | 51.40198 | 5.32065 | 1040 ft | 138 kts | 34° |
| 2026-05-05 15:23 | 51.40990 | 5.32944 | 828 ft | 138 kts | 35° |
| 2026-05-05 15:23 | 51.41766 | 5.33818 | 629 ft | 138 kts | 35° |
| 2026-05-05 15:24 | 51.42555 | 5.34706 | 465 ft | 139 kts | 34° |
| 2026-05-05 15:24 | 51.43358 | 5.35604 | 264 ft | 139 kts | 34° |
| 2026-05-05 15:24 | 51.44143 | 5.36480 | 109 ft | 138 kts | 34° |
| 2026-05-05 15:24 | 51.44866 | 5.37288 | 70 ft | 103 kts | 34° |
| 2026-05-05 15:25 | 51.45314 | 5.37791 | 69 ft | 56 kts | 35° |
| 2026-05-05 15:25 | 51.45514 | 5.38021 | 72 ft | 14 kts | 37° |
| 2026-05-05 15:25 | 51.45530 | 5.38122 | 76 ft | 11 kts | 120° |
| 2026-05-05 15:25 | 51.45495 | 5.38206 | 64 ft | 9 kts | 123° |
| 2026-05-05 15:26 | 51.45461 | 5.38288 | 72 ft | 8 kts | 125° |